sensor_id;sensor_type;location;lat;lon;timestamp;P1;durP1;ratioP1;P2;durP2;ratioP2
20000;SDS011;10161;41.188;-8.642;2023-03-26T00:00:39;7.20;;;1.90;;
20000;SDS011;10161;41.188;-8.642;2023-03-26T00:03:08;6.43;;;1.93;;
20000;SDS011;10161;41.188;-8.642;2023-03-26T00:05:35;9.13;;;2.20;;
20000;SDS011;10161;41.188;-8.642;2023-03-26T00:08:03;9.30;;;2.73;;
20000;SDS011;10161;41.188;-8.642;2023-03-26T00:10:32;10.73;;;2.50;;
20000;SDS011;10161;41.188;-8.642;2023-03-26T00:13:00;14.87;;;2.50;;
20000;SDS011;10161;41.188;-8.642;2023-03-26T00:15:28;12.80;;;3.13;;
20000;SDS011;10161;41.188;-8.642;2023-03-26T00:17:55;13.80;;;2.20;;
20000;SDS011;10161;41.188;-8.642;2023-03-26T00:20:22;7.77;;;2.53;;
20000;SDS011;10161;41.188;-8.642;2023-03-26T00:22:50;7.70;;;2.53;;
20000;SDS011;10161;41.188;-8.642;2023-03-26T00:25:17;7.50;;;2.23;;
20000;SDS011;10161;41.188;-8.642;2023-03-26T00:27:45;7.80;;;2.23;;
20000;SDS011;10161;41.188;-8.642;2023-03-26T00:30:13;9.23;;;2.00;;
20000;SDS011;10161;41.188;-8.642;2023-03-26T00:32:42;16.40;;;2.50;;
20000;SDS011;10161;41.188;-8.642;2023-03-26T00:35:09;9.63;;;2.33;;
20000;SDS011;10161;41.188;-8.642;2023-03-26T00:37:37;7.07;;;1.90;;
20000;SDS011;10161;41.188;-8.642;2023-03-26T00:40:07;6.30;;;2.20;;
20000;SDS011;10161;41.188;-8.642;2023-03-26T00:42:35;10.20;;;2.60;;
20000;SDS011;10161;41.188;-8.642;2023-03-26T00:45:02;9.40;;;2.73;;
20000;SDS011;10161;41.188;-8.642;2023-03-26T00:47:29;9.53;;;2.27;;
20000;SDS011;10161;41.188;-8.642;2023-03-26T00:49:58;10.23;;;2.07;;
20000;SDS011;10161;41.188;-8.642;2023-03-26T00:52:25;10.33;;;2.03;;
20000;SDS011;10161;41.188;-8.642;2023-03-26T00:54:54;11.00;;;2.77;;
20000;SDS011;10161;41.188;-8.642;2023-03-26T00:57:21;8.37;;;2.30;;
20000;SDS011;10161;41.188;-8.642;2023-03-26T00:59:54;14.73;;;2.50;;
20000;SDS011;10161;41.188;-8.642;2023-03-26T01:02:21;8.00;;;2.40;;
20000;SDS011;10161;41.188;-8.642;2023-03-26T01:04:51;11.33;;;2.80;;
20000;SDS011;10161;41.188;-8.642;2023-03-26T01:07:23;11.73;;;2.40;;
20000;SDS011;10161;41.188;-8.642;2023-03-26T01:09:53;6.97;;;2.10;;
20000;SDS011;10161;41.188;-8.642;2023-03-26T01:12:23;7.63;;;2.10;;
20000;SDS011;10161;41.188;-8.642;2023-03-26T01:14:52;5.53;;;2.00;;
20000;SDS011;10161;41.188;-8.642;2023-03-26T01:17:21;12.57;;;2.30;;
20000;SDS011;10161;41.188;-8.642;2023-03-26T01:19:50;16.07;;;2.50;;
20000;SDS011;10161;41.188;-8.642;2023-03-26T01:22:22;8.10;;;2.50;;
20000;SDS011;10161;41.188;-8.642;2023-03-26T01:24:51;6.37;;;2.10;;
20000;SDS011;10161;41.188;-8.642;2023-03-26T01:27:33;7.23;;;2.20;;
20000;SDS011;10161;41.188;-8.642;2023-03-26T01:30:04;8.37;;;2.33;;
20000;SDS011;10161;41.188;-8.642;2023-03-26T01:35:25;8.27;;;2.70;;
20000;SDS011;10161;41.188;-8.642;2023-03-26T01:38:00;6.07;;;1.80;;
20000;SDS011;10161;41.188;-8.642;2023-03-26T01:40:38;6.87;;;2.10;;
20000;SDS011;10161;41.188;-8.642;2023-03-26T01:43:11;9.57;;;2.43;;
20000;SDS011;10161;41.188;-8.642;2023-03-26T01:45:43;5.13;;;1.80;;
20000;SDS011;10161;41.188;-8.642;2023-03-26T01:48:12;9.10;;;2.80;;
20000;SDS011;10161;41.188;-8.642;2023-03-26T01:50:40;16.10;;;2.27;;
20000;SDS011;10161;41.188;-8.642;2023-03-26T01:53:07;6.50;;;2.37;;
20000;SDS011;10161;41.188;-8.642;2023-03-26T01:55:36;6.30;;;1.93;;
20000;SDS011;10161;41.188;-8.642;2023-03-26T01:58:16;9.87;;;2.27;;
20000;SDS011;10161;41.188;-8.642;2023-03-26T02:00:50;8.60;;;2.50;;
20000;SDS011;10161;41.188;-8.642;2023-03-26T02:03:21;8.83;;;2.07;;
20000;SDS011;10161;41.188;-8.642;2023-03-26T02:05:51;9.80;;;2.27;;
20000;SDS011;10161;41.188;-8.642;2023-03-26T02:08:22;12.10;;;2.90;;
20000;SDS011;10161;41.188;-8.642;2023-03-26T02:10:52;6.73;;;2.17;;
20000;SDS011;10161;41.188;-8.642;2023-03-26T02:13:22;10.77;;;2.20;;
20000;SDS011;10161;41.188;-8.642;2023-03-26T02:15:56;6.83;;;2.17;;
20000;SDS011;10161;41.188;-8.642;2023-03-26T02:18:23;8.27;;;2.30;;
20000;SDS011;10161;41.188;-8.642;2023-03-26T02:21:01;8.50;;;2.47;;
20000;SDS011;10161;41.188;-8.642;2023-03-26T02:23:29;6.73;;;2.10;;
20000;SDS011;10161;41.188;-8.642;2023-03-26T02:26:01;5.77;;;2.23;;
20000;SDS011;10161;41.188;-8.642;2023-03-26T02:28:30;12.33;;;2.60;;
20000;SDS011;10161;41.188;-8.642;2023-03-26T02:30:59;5.70;;;1.90;;
20000;SDS011;10161;41.188;-8.642;2023-03-26T02:33:27;8.97;;;2.37;;
20000;SDS011;10161;41.188;-8.642;2023-03-26T02:35:54;3.60;;;1.93;;
20000;SDS011;10161;41.188;-8.642;2023-03-26T02:38:23;5.90;;;1.87;;
20000;SDS011;10161;41.188;-8.642;2023-03-26T02:40:51;7.17;;;2.20;;
20000;SDS011;10161;41.188;-8.642;2023-03-26T02:43:19;6.10;;;1.77;;
20000;SDS011;10161;41.188;-8.642;2023-03-26T02:45:47;5.30;;;2.63;;
20000;SDS011;10161;41.188;-8.642;2023-03-26T02:48:14;7.60;;;2.13;;
20000;SDS011;10161;41.188;-8.642;2023-03-26T02:50:41;10.00;;;2.80;;
20000;SDS011;10161;41.188;-8.642;2023-03-26T02:53:08;6.00;;;2.77;;
20000;SDS011;10161;41.188;-8.642;2023-03-26T02:55:35;8.13;;;2.30;;
20000;SDS011;10161;41.188;-8.642;2023-03-26T02:58:02;7.50;;;2.57;;
20000;SDS011;10161;41.188;-8.642;2023-03-26T03:00:31;8.17;;;2.03;;
20000;SDS011;10161;41.188;-8.642;2023-03-26T03:02:59;5.37;;;2.30;;
20000;SDS011;10161;41.188;-8.642;2023-03-26T03:05:28;7.20;;;2.40;;
20000;SDS011;10161;41.188;-8.642;2023-03-26T03:07:55;8.73;;;2.60;;
20000;SDS011;10161;41.188;-8.642;2023-03-26T03:10:22;6.03;;;2.10;;
20000;SDS011;10161;41.188;-8.642;2023-03-26T03:12:50;5.87;;;2.30;;
20000;SDS011;10161;41.188;-8.642;2023-03-26T03:15:17;5.87;;;2.47;;
20000;SDS011;10161;41.188;-8.642;2023-03-26T03:17:46;7.80;;;2.40;;
20000;SDS011;10161;41.188;-8.642;2023-03-26T03:20:12;3.63;;;1.73;;
20000;SDS011;10161;41.188;-8.642;2023-03-26T03:22:40;7.00;;;2.10;;
20000;SDS011;10161;41.188;-8.642;2023-03-26T03:25:07;5.70;;;2.13;;
20000;SDS011;10161;41.188;-8.642;2023-03-26T03:27:38;7.77;;;2.10;;
20000;SDS011;10161;41.188;-8.642;2023-03-26T03:30:07;9.87;;;2.80;;
20000;SDS011;10161;41.188;-8.642;2023-03-26T03:32:35;9.50;;;3.07;;
20000;SDS011;10161;41.188;-8.642;2023-03-26T03:35:04;8.67;;;2.50;;
20000;SDS011;10161;41.188;-8.642;2023-03-26T03:37:31;5.50;;;1.80;;
20000;SDS011;10161;41.188;-8.642;2023-03-26T03:39:58;6.63;;;2.00;;
20000;SDS011;10161;41.188;-8.642;2023-03-26T03:42:25;6.90;;;2.10;;
20000;SDS011;10161;41.188;-8.642;2023-03-26T03:44:53;5.20;;;1.90;;
20000;SDS011;10161;41.188;-8.642;2023-03-26T03:47:19;3.77;;;1.57;;
20000;SDS011;10161;41.188;-8.642;2023-03-26T03:49:47;7.23;;;2.10;;
20000;SDS011;10161;41.188;-8.642;2023-03-26T03:52:16;6.07;;;2.20;;
20000;SDS011;10161;41.188;-8.642;2023-03-26T03:54:43;6.97;;;1.70;;
20000;SDS011;10161;41.188;-8.642;2023-03-26T03:57:10;6.27;;;1.90;;
20000;SDS011;10161;41.188;-8.642;2023-03-26T03:59:38;4.47;;;2.07;;
20000;SDS011;10161;41.188;-8.642;2023-03-26T04:02:05;5.43;;;2.00;;
20000;SDS011;10161;41.188;-8.642;2023-03-26T04:04:32;6.10;;;2.37;;
20000;SDS011;10161;41.188;-8.642;2023-03-26T04:06:59;6.07;;;1.90;;
20000;SDS011;10161;41.188;-8.642;2023-03-26T04:09:27;7.77;;;2.20;;
20000;SDS011;10161;41.188;-8.642;2023-03-26T04:11:54;6.10;;;2.30;;
20000;SDS011;10161;41.188;-8.642;2023-03-26T04:14:21;9.83;;;2.60;;
20000;SDS011;10161;41.188;-8.642;2023-03-26T04:16:48;8.87;;;2.37;;
20000;SDS011;10161;41.188;-8.642;2023-03-26T04:19:15;9.20;;;2.80;;
20000;SDS011;10161;41.188;-8.642;2023-03-26T04:21:42;5.40;;;2.40;;
20000;SDS011;10161;41.188;-8.642;2023-03-26T04:24:09;10.90;;;3.00;;
20000;SDS011;10161;41.188;-8.642;2023-03-26T04:26:37;8.30;;;2.80;;
20000;SDS011;10161;41.188;-8.642;2023-03-26T04:29:05;7.60;;;2.80;;
20000;SDS011;10161;41.188;-8.642;2023-03-26T04:31:36;10.20;;;2.90;;
20000;SDS011;10161;41.188;-8.642;2023-03-26T04:34:04;8.77;;;2.73;;
20000;SDS011;10161;41.188;-8.642;2023-03-26T04:36:38;10.43;;;3.13;;
20000;SDS011;10161;41.188;-8.642;2023-03-26T04:39:08;7.57;;;2.93;;
20000;SDS011;10161;41.188;-8.642;2023-03-26T04:41:37;13.20;;;2.87;;
20000;SDS011;10161;41.188;-8.642;2023-03-26T04:44:04;9.00;;;2.73;;
20000;SDS011;10161;41.188;-8.642;2023-03-26T04:46:31;11.30;;;2.57;;
20000;SDS011;10161;41.188;-8.642;2023-03-26T04:48:59;5.80;;;2.30;;
20000;SDS011;10161;41.188;-8.642;2023-03-26T04:51:30;5.70;;;2.13;;
20000;SDS011;10161;41.188;-8.642;2023-03-26T04:54:02;10.20;;;2.57;;
20000;SDS011;10161;41.188;-8.642;2023-03-26T04:56:33;9.57;;;2.37;;
20000;SDS011;10161;41.188;-8.642;2023-03-26T04:59:07;8.40;;;2.53;;
20000;SDS011;10161;41.188;-8.642;2023-03-26T05:01:40;10.07;;;3.00;;
20000;SDS011;10161;41.188;-8.642;2023-03-26T05:04:10;8.80;;;2.60;;
20000;SDS011;10161;41.188;-8.642;2023-03-26T05:06:37;4.27;;;1.80;;
20000;SDS011;10161;41.188;-8.642;2023-03-26T05:09:04;11.07;;;3.30;;
20000;SDS011;10161;41.188;-8.642;2023-03-26T05:11:31;8.73;;;2.33;;
20000;SDS011;10161;41.188;-8.642;2023-03-26T05:13:59;9.67;;;3.00;;
20000;SDS011;10161;41.188;-8.642;2023-03-26T05:16:27;7.53;;;2.30;;
20000;SDS011;10161;41.188;-8.642;2023-03-26T05:18:54;8.40;;;2.77;;
20000;SDS011;10161;41.188;-8.642;2023-03-26T05:21:21;6.07;;;2.10;;
20000;SDS011;10161;41.188;-8.642;2023-03-26T05:23:48;11.83;;;2.90;;
20000;SDS011;10161;41.188;-8.642;2023-03-26T05:26:15;8.20;;;3.00;;
20000;SDS011;10161;41.188;-8.642;2023-03-26T05:28:42;9.97;;;3.00;;
20000;SDS011;10161;41.188;-8.642;2023-03-26T05:31:11;10.53;;;2.63;;
20000;SDS011;10161;41.188;-8.642;2023-03-26T05:33:39;9.77;;;2.67;;
20000;SDS011;10161;41.188;-8.642;2023-03-26T05:36:07;13.57;;;3.00;;
20000;SDS011;10161;41.188;-8.642;2023-03-26T05:38:37;10.83;;;3.20;;
20000;SDS011;10161;41.188;-8.642;2023-03-26T05:41:05;11.60;;;2.50;;
20000;SDS011;10161;41.188;-8.642;2023-03-26T05:43:33;8.50;;;2.80;;
20000;SDS011;10161;41.188;-8.642;2023-03-26T05:46:01;12.30;;;3.20;;
20000;SDS011;10161;41.188;-8.642;2023-03-26T05:48:33;15.80;;;3.80;;
20000;SDS011;10161;41.188;-8.642;2023-03-26T05:51:00;11.10;;;3.23;;
20000;SDS011;10161;41.188;-8.642;2023-03-26T05:53:27;11.13;;;3.33;;
20000;SDS011;10161;41.188;-8.642;2023-03-26T05:55:54;9.43;;;2.40;;
20000;SDS011;10161;41.188;-8.642;2023-03-26T05:58:22;11.17;;;2.70;;
20000;SDS011;10161;41.188;-8.642;2023-03-26T06:00:54;8.97;;;2.60;;
20000;SDS011;10161;41.188;-8.642;2023-03-26T06:03:23;13.00;;;3.33;;
20000;SDS011;10161;41.188;-8.642;2023-03-26T06:05:51;10.83;;;3.00;;
20000;SDS011;10161;41.188;-8.642;2023-03-26T06:08:18;12.30;;;3.50;;
20000;SDS011;10161;41.188;-8.642;2023-03-26T06:10:46;9.33;;;3.03;;
20000;SDS011;10161;41.188;-8.642;2023-03-26T06:13:13;16.07;;;3.30;;
20000;SDS011;10161;41.188;-8.642;2023-03-26T06:15:41;11.73;;;2.83;;
20000;SDS011;10161;41.188;-8.642;2023-03-26T06:18:07;15.63;;;3.53;;
20000;SDS011;10161;41.188;-8.642;2023-03-26T06:20:35;12.27;;;3.13;;
20000;SDS011;10161;41.188;-8.642;2023-03-26T06:23:03;7.27;;;2.40;;
20000;SDS011;10161;41.188;-8.642;2023-03-26T06:25:30;12.07;;;2.73;;
20000;SDS011;10161;41.188;-8.642;2023-03-26T06:27:57;9.67;;;2.80;;
20000;SDS011;10161;41.188;-8.642;2023-03-26T06:30:24;11.20;;;2.77;;
20000;SDS011;10161;41.188;-8.642;2023-03-26T06:32:50;12.00;;;3.23;;
20000;SDS011;10161;41.188;-8.642;2023-03-26T06:35:17;8.50;;;2.60;;
20000;SDS011;10161;41.188;-8.642;2023-03-26T06:37:45;10.30;;;2.13;;
20000;SDS011;10161;41.188;-8.642;2023-03-26T06:40:13;15.87;;;3.00;;
20000;SDS011;10161;41.188;-8.642;2023-03-26T06:42:40;9.60;;;2.73;;
20000;SDS011;10161;41.188;-8.642;2023-03-26T06:45:08;8.27;;;2.90;;
20000;SDS011;10161;41.188;-8.642;2023-03-26T06:47:36;8.23;;;2.67;;
20000;SDS011;10161;41.188;-8.642;2023-03-26T06:50:03;7.70;;;2.67;;
20000;SDS011;10161;41.188;-8.642;2023-03-26T06:52:31;11.87;;;2.43;;
20000;SDS011;10161;41.188;-8.642;2023-03-26T06:54:58;8.73;;;2.47;;
20000;SDS011;10161;41.188;-8.642;2023-03-26T06:57:26;10.90;;;2.67;;
20000;SDS011;10161;41.188;-8.642;2023-03-26T06:59:53;9.37;;;2.80;;
20000;SDS011;10161;41.188;-8.642;2023-03-26T07:02:20;8.30;;;2.63;;
20000;SDS011;10161;41.188;-8.642;2023-03-26T07:04:47;7.63;;;2.33;;
20000;SDS011;10161;41.188;-8.642;2023-03-26T07:07:15;9.00;;;2.97;;
20000;SDS011;10161;41.188;-8.642;2023-03-26T07:09:44;11.00;;;2.90;;
20000;SDS011;10161;41.188;-8.642;2023-03-26T07:12:12;5.43;;;2.33;;
20000;SDS011;10161;41.188;-8.642;2023-03-26T07:14:40;8.83;;;2.53;;
20000;SDS011;10161;41.188;-8.642;2023-03-26T07:17:07;8.37;;;3.07;;
20000;SDS011;10161;41.188;-8.642;2023-03-26T07:19:34;11.30;;;2.97;;
20000;SDS011;10161;41.188;-8.642;2023-03-26T07:22:01;8.83;;;2.90;;
20000;SDS011;10161;41.188;-8.642;2023-03-26T07:24:31;12.40;;;2.73;;
20000;SDS011;10161;41.188;-8.642;2023-03-26T07:26:59;6.20;;;2.43;;
20000;SDS011;10161;41.188;-8.642;2023-03-26T07:29:32;8.43;;;2.83;;
20000;SDS011;10161;41.188;-8.642;2023-03-26T07:32:05;13.40;;;2.90;;
20000;SDS011;10161;41.188;-8.642;2023-03-26T07:34:40;7.67;;;2.63;;
20000;SDS011;10161;41.188;-8.642;2023-03-26T07:37:14;9.00;;;2.30;;
20000;SDS011;10161;41.188;-8.642;2023-03-26T07:39:49;11.33;;;3.07;;
20000;SDS011;10161;41.188;-8.642;2023-03-26T07:42:22;8.70;;;3.17;;
20000;SDS011;10161;41.188;-8.642;2023-03-26T07:44:56;9.40;;;3.00;;
20000;SDS011;10161;41.188;-8.642;2023-03-26T07:47:28;8.37;;;2.77;;
20000;SDS011;10161;41.188;-8.642;2023-03-26T07:49:58;8.77;;;3.10;;
20000;SDS011;10161;41.188;-8.642;2023-03-26T07:52:26;11.40;;;2.63;;
20000;SDS011;10161;41.188;-8.642;2023-03-26T07:54:54;8.43;;;2.60;;
20000;SDS011;10161;41.188;-8.642;2023-03-26T07:57:24;12.00;;;3.30;;
20000;SDS011;10161;41.188;-8.642;2023-03-26T08:00:00;19.57;;;11.80;;
20000;SDS011;10161;41.188;-8.642;2023-03-26T08:02:37;12.70;;;7.03;;
20000;SDS011;10161;41.188;-8.642;2023-03-26T08:05:12;11.67;;;5.30;;
20000;SDS011;10161;41.188;-8.642;2023-03-26T08:07:48;15.87;;;4.13;;
20000;SDS011;10161;41.188;-8.642;2023-03-26T08:10:22;16.10;;;3.53;;
20000;SDS011;10161;41.188;-8.642;2023-03-26T08:12:54;11.63;;;2.93;;
20000;SDS011;10161;41.188;-8.642;2023-03-26T08:15:27;12.97;;;3.50;;
20000;SDS011;10161;41.188;-8.642;2023-03-26T08:17:59;16.93;;;2.93;;
20000;SDS011;10161;41.188;-8.642;2023-03-26T08:20:31;13.90;;;3.57;;
20000;SDS011;10161;41.188;-8.642;2023-03-26T08:23:07;10.23;;;2.97;;
20000;SDS011;10161;41.188;-8.642;2023-03-26T08:25:44;9.63;;;3.20;;
20000;SDS011;10161;41.188;-8.642;2023-03-26T08:28:18;12.73;;;3.60;;
20000;SDS011;10161;41.188;-8.642;2023-03-26T08:30:51;14.70;;;3.50;;
20000;SDS011;10161;41.188;-8.642;2023-03-26T08:33:20;15.63;;;3.77;;
20000;SDS011;10161;41.188;-8.642;2023-03-26T08:35:48;11.10;;;3.53;;
20000;SDS011;10161;41.188;-8.642;2023-03-26T08:38:16;15.50;;;3.13;;
20000;SDS011;10161;41.188;-8.642;2023-03-26T08:44:07;14.07;;;3.40;;
20000;SDS011;10161;41.188;-8.642;2023-03-26T08:47:08;7.70;;;2.73;;
20000;SDS011;10161;41.188;-8.642;2023-03-26T08:52:45;16.53;;;4.60;;
20000;SDS011;10161;41.188;-8.642;2023-03-26T08:55:39;13.90;;;4.50;;
20000;SDS011;10161;41.188;-8.642;2023-03-26T09:01:25;14.87;;;3.73;;
20000;SDS011;10161;41.188;-8.642;2023-03-26T09:04:35;18.07;;;3.87;;
20000;SDS011;10161;41.188;-8.642;2023-03-26T09:10:15;16.10;;;3.90;;
20000;SDS011;10161;41.188;-8.642;2023-03-26T09:13:04;13.30;;;3.73;;
20000;SDS011;10161;41.188;-8.642;2023-03-26T09:15:57;16.20;;;4.13;;
20000;SDS011;10161;41.188;-8.642;2023-03-26T09:19:01;16.03;;;3.60;;
20000;SDS011;10161;41.188;-8.642;2023-03-26T09:24:56;9.03;;;3.30;;
20000;SDS011;10161;41.188;-8.642;2023-03-26T09:27:45;16.57;;;4.07;;
20000;SDS011;10161;41.188;-8.642;2023-03-26T09:30:32;12.47;;;3.30;;
20000;SDS011;10161;41.188;-8.642;2023-03-26T09:33:13;7.63;;;2.83;;
20000;SDS011;10161;41.188;-8.642;2023-03-26T09:36:17;11.33;;;3.17;;
20000;SDS011;10161;41.188;-8.642;2023-03-26T09:38:49;11.80;;;3.23;;
20000;SDS011;10161;41.188;-8.642;2023-03-26T09:41:23;11.83;;;2.90;;
20000;SDS011;10161;41.188;-8.642;2023-03-26T09:44:11;10.50;;;3.40;;
20000;SDS011;10161;41.188;-8.642;2023-03-26T09:47:17;8.33;;;2.30;;
20000;SDS011;10161;41.188;-8.642;2023-03-26T09:50:16;11.97;;;3.10;;
20000;SDS011;10161;41.188;-8.642;2023-03-26T09:52:59;8.33;;;2.67;;
20000;SDS011;10161;41.188;-8.642;2023-03-26T09:55:37;11.90;;;3.17;;
20000;SDS011;10161;41.188;-8.642;2023-03-26T09:58:18;13.90;;;3.23;;
20000;SDS011;10161;41.188;-8.642;2023-03-26T10:00:54;9.43;;;2.87;;
20000;SDS011;10161;41.188;-8.642;2023-03-26T10:03:27;13.90;;;3.20;;
20000;SDS011;10161;41.188;-8.642;2023-03-26T10:06:05;10.13;;;2.70;;
20000;SDS011;10161;41.188;-8.642;2023-03-26T10:11:58;11.60;;;3.13;;
20000;SDS011;10161;41.188;-8.642;2023-03-26T10:14:33;11.20;;;3.50;;
20000;SDS011;10161;41.188;-8.642;2023-03-26T10:17:05;9.50;;;3.17;;
20000;SDS011;10161;41.188;-8.642;2023-03-26T10:19:47;12.63;;;3.67;;
20000;SDS011;10161;41.188;-8.642;2023-03-26T10:22:20;18.13;;;4.10;;
20000;SDS011;10161;41.188;-8.642;2023-03-26T10:25:09;11.20;;;3.77;;
20000;SDS011;10161;41.188;-8.642;2023-03-26T10:27:46;13.97;;;3.30;;
20000;SDS011;10161;41.188;-8.642;2023-03-26T10:30:33;10.37;;;3.17;;
20000;SDS011;10161;41.188;-8.642;2023-03-26T10:33:12;10.00;;;3.50;;
20000;SDS011;10161;41.188;-8.642;2023-03-26T10:35:47;12.67;;;3.27;;
20000;SDS011;10161;41.188;-8.642;2023-03-26T10:38:23;12.70;;;3.33;;
20000;SDS011;10161;41.188;-8.642;2023-03-26T10:41:02;14.80;;;3.70;;
20000;SDS011;10161;41.188;-8.642;2023-03-26T10:43:41;13.70;;;3.20;;
20000;SDS011;10161;41.188;-8.642;2023-03-26T10:46:26;13.57;;;3.70;;
20000;SDS011;10161;41.188;-8.642;2023-03-26T10:51:54;11.57;;;3.30;;
20000;SDS011;10161;41.188;-8.642;2023-03-26T10:54:33;17.03;;;3.47;;
20000;SDS011;10161;41.188;-8.642;2023-03-26T10:57:06;15.20;;;3.33;;
20000;SDS011;10161;41.188;-8.642;2023-03-26T10:59:38;15.00;;;3.73;;
20000;SDS011;10161;41.188;-8.642;2023-03-26T11:02:16;21.00;;;3.80;;
20000;SDS011;10161;41.188;-8.642;2023-03-26T11:04:52;9.70;;;3.50;;
20000;SDS011;10161;41.188;-8.642;2023-03-26T11:07:23;11.00;;;3.60;;
20000;SDS011;10161;41.188;-8.642;2023-03-26T11:09:56;11.40;;;3.57;;
20000;SDS011;10161;41.188;-8.642;2023-03-26T11:12:27;11.00;;;3.13;;
20000;SDS011;10161;41.188;-8.642;2023-03-26T11:15:04;11.47;;;3.20;;
20000;SDS011;10161;41.188;-8.642;2023-03-26T11:17:42;12.73;;;3.53;;
20000;SDS011;10161;41.188;-8.642;2023-03-26T11:20:15;25.17;;;4.40;;
20000;SDS011;10161;41.188;-8.642;2023-03-26T11:22:47;9.60;;;3.30;;
20000;SDS011;10161;41.188;-8.642;2023-03-26T11:25:23;10.27;;;3.30;;
20000;SDS011;10161;41.188;-8.642;2023-03-26T11:27:56;13.27;;;3.77;;
20000;SDS011;10161;41.188;-8.642;2023-03-26T11:30:32;12.83;;;3.47;;
20000;SDS011;10161;41.188;-8.642;2023-03-26T11:33:05;18.13;;;4.00;;
20000;SDS011;10161;41.188;-8.642;2023-03-26T11:35:36;13.33;;;3.43;;
20000;SDS011;10161;41.188;-8.642;2023-03-26T11:38:04;10.73;;;3.60;;
20000;SDS011;10161;41.188;-8.642;2023-03-26T11:40:33;10.60;;;3.07;;
20000;SDS011;10161;41.188;-8.642;2023-03-26T11:43:01;11.10;;;3.10;;
20000;SDS011;10161;41.188;-8.642;2023-03-26T11:45:31;13.70;;;3.60;;
20000;SDS011;10161;41.188;-8.642;2023-03-26T11:48:02;10.67;;;3.30;;
20000;SDS011;10161;41.188;-8.642;2023-03-26T11:50:37;10.90;;;3.30;;
20000;SDS011;10161;41.188;-8.642;2023-03-26T11:53:10;13.27;;;3.40;;
20000;SDS011;10161;41.188;-8.642;2023-03-26T11:55:39;11.50;;;3.67;;
20000;SDS011;10161;41.188;-8.642;2023-03-26T11:58:11;10.20;;;3.00;;
20000;SDS011;10161;41.188;-8.642;2023-03-26T12:00:48;7.97;;;3.03;;
20000;SDS011;10161;41.188;-8.642;2023-03-26T12:03:16;12.77;;;4.10;;
20000;SDS011;10161;41.188;-8.642;2023-03-26T12:05:47;11.57;;;3.93;;
20000;SDS011;10161;41.188;-8.642;2023-03-26T12:08:18;12.70;;;3.70;;
20000;SDS011;10161;41.188;-8.642;2023-03-26T12:10:50;13.40;;;3.77;;
20000;SDS011;10161;41.188;-8.642;2023-03-26T12:13:27;14.67;;;3.63;;
20000;SDS011;10161;41.188;-8.642;2023-03-26T12:15:57;14.40;;;3.40;;
20000;SDS011;10161;41.188;-8.642;2023-03-26T12:18:28;14.40;;;3.90;;
20000;SDS011;10161;41.188;-8.642;2023-03-26T12:21:03;11.23;;;3.10;;
20000;SDS011;10161;41.188;-8.642;2023-03-26T12:23:33;11.90;;;3.70;;
20000;SDS011;10161;41.188;-8.642;2023-03-26T12:28:47;10.33;;;3.63;;
20000;SDS011;10161;41.188;-8.642;2023-03-26T12:31:14;12.53;;;4.00;;
20000;SDS011;10161;41.188;-8.642;2023-03-26T12:33:49;10.73;;;3.30;;
20000;SDS011;10161;41.188;-8.642;2023-03-26T12:36:30;9.53;;;3.40;;
20000;SDS011;10161;41.188;-8.642;2023-03-26T12:38:58;14.90;;;3.90;;
20000;SDS011;10161;41.188;-8.642;2023-03-26T12:41:32;12.27;;;3.17;;
20000;SDS011;10161;41.188;-8.642;2023-03-26T12:44:13;15.90;;;3.53;;
20000;SDS011;10161;41.188;-8.642;2023-03-26T12:46:49;11.27;;;3.60;;
20000;SDS011;10161;41.188;-8.642;2023-03-26T12:49:19;12.63;;;3.03;;
20000;SDS011;10161;41.188;-8.642;2023-03-26T12:51:47;13.57;;;3.30;;
20000;SDS011;10161;41.188;-8.642;2023-03-26T12:54:21;14.77;;;3.73;;
20000;SDS011;10161;41.188;-8.642;2023-03-26T12:56:55;17.53;;;3.47;;
20000;SDS011;10161;41.188;-8.642;2023-03-26T12:59:34;13.70;;;3.67;;
20000;SDS011;10161;41.188;-8.642;2023-03-26T13:02:16;9.87;;;2.60;;
20000;SDS011;10161;41.188;-8.642;2023-03-26T13:07:48;11.80;;;2.90;;
20000;SDS011;10161;41.188;-8.642;2023-03-26T13:10:25;11.73;;;3.30;;
20000;SDS011;10161;41.188;-8.642;2023-03-26T13:13:03;10.40;;;3.43;;
20000;SDS011;10161;41.188;-8.642;2023-03-26T13:15:37;10.57;;;3.13;;
20000;SDS011;10161;41.188;-8.642;2023-03-26T13:18:10;12.63;;;3.30;;
20000;SDS011;10161;41.188;-8.642;2023-03-26T13:20:52;11.17;;;3.20;;
20000;SDS011;10161;41.188;-8.642;2023-03-26T13:23:27;6.40;;;2.57;;
20000;SDS011;10161;41.188;-8.642;2023-03-26T13:26:00;9.70;;;2.80;;
20000;SDS011;10161;41.188;-8.642;2023-03-26T13:28:36;16.97;;;4.03;;
20000;SDS011;10161;41.188;-8.642;2023-03-26T13:31:09;10.73;;;3.47;;
20000;SDS011;10161;41.188;-8.642;2023-03-26T13:33:44;10.73;;;3.73;;
20000;SDS011;10161;41.188;-8.642;2023-03-26T13:36:18;16.77;;;3.20;;
20000;SDS011;10161;41.188;-8.642;2023-03-26T13:38:50;11.60;;;3.20;;
20000;SDS011;10161;41.188;-8.642;2023-03-26T13:41:26;12.17;;;3.30;;
20000;SDS011;10161;41.188;-8.642;2023-03-26T13:44:02;11.70;;;3.07;;
20000;SDS011;10161;41.188;-8.642;2023-03-26T13:46:35;10.63;;;3.23;;
20000;SDS011;10161;41.188;-8.642;2023-03-26T13:49:07;10.90;;;3.17;;
20000;SDS011;10161;41.188;-8.642;2023-03-26T13:51:39;9.90;;;3.10;;
20000;SDS011;10161;41.188;-8.642;2023-03-26T13:54:14;10.30;;;2.93;;
20000;SDS011;10161;41.188;-8.642;2023-03-26T13:56:44;13.37;;;3.50;;
20000;SDS011;10161;41.188;-8.642;2023-03-26T13:59:14;13.40;;;3.37;;
20000;SDS011;10161;41.188;-8.642;2023-03-26T14:01:44;11.43;;;3.47;;
20000;SDS011;10161;41.188;-8.642;2023-03-26T14:04:14;13.33;;;3.33;;
20000;SDS011;10161;41.188;-8.642;2023-03-26T14:06:47;11.80;;;3.40;;
20000;SDS011;10161;41.188;-8.642;2023-03-26T14:09:20;11.10;;;3.17;;
20000;SDS011;10161;41.188;-8.642;2023-03-26T14:11:52;8.33;;;3.10;;
20000;SDS011;10161;41.188;-8.642;2023-03-26T14:14:37;10.93;;;3.73;;
20000;SDS011;10161;41.188;-8.642;2023-03-26T14:17:12;12.23;;;4.10;;
20000;SDS011;10161;41.188;-8.642;2023-03-26T14:25:59;11.33;;;3.63;;
20000;SDS011;10161;41.188;-8.642;2023-03-26T14:31:32;10.10;;;3.10;;
20000;SDS011;10161;41.188;-8.642;2023-03-26T14:34:03;11.20;;;3.90;;
20000;SDS011;10161;41.188;-8.642;2023-03-26T14:36:56;10.37;;;3.57;;
20000;SDS011;10161;41.188;-8.642;2023-03-26T14:42:41;11.50;;;3.23;;
20000;SDS011;10161;41.188;-8.642;2023-03-26T14:45:37;11.10;;;3.27;;
20000;SDS011;10161;41.188;-8.642;2023-03-26T14:48:36;11.07;;;3.23;;
20000;SDS011;10161;41.188;-8.642;2023-03-26T14:51:27;13.47;;;3.60;;
20000;SDS011;10161;41.188;-8.642;2023-03-26T14:54:01;13.30;;;3.20;;
20000;SDS011;10161;41.188;-8.642;2023-03-26T14:56:37;9.40;;;2.97;;
20000;SDS011;10161;41.188;-8.642;2023-03-26T14:59:20;12.70;;;3.50;;
20000;SDS011;10161;41.188;-8.642;2023-03-26T15:02:35;10.37;;;2.93;;
20000;SDS011;10161;41.188;-8.642;2023-03-26T15:05:52;12.07;;;3.93;;
20000;SDS011;10161;41.188;-8.642;2023-03-26T15:11:36;9.77;;;3.10;;
20000;SDS011;10161;41.188;-8.642;2023-03-26T15:14:16;11.90;;;3.33;;
20000;SDS011;10161;41.188;-8.642;2023-03-26T15:17:09;13.90;;;3.63;;
20000;SDS011;10161;41.188;-8.642;2023-03-26T15:29:02;9.07;;;3.10;;
20000;SDS011;10161;41.188;-8.642;2023-03-26T15:38:11;9.50;;;3.70;;
20000;SDS011;10161;41.188;-8.642;2023-03-26T15:40:59;11.30;;;4.00;;
20000;SDS011;10161;41.188;-8.642;2023-03-26T15:43:43;14.27;;;4.53;;
20000;SDS011;10161;41.188;-8.642;2023-03-26T15:46:39;15.33;;;4.10;;
20000;SDS011;10161;41.188;-8.642;2023-03-26T15:49:34;11.50;;;3.10;;
20000;SDS011;10161;41.188;-8.642;2023-03-26T15:52:11;10.80;;;3.77;;
20000;SDS011;10161;41.188;-8.642;2023-03-26T15:54:44;12.13;;;3.77;;
20000;SDS011;10161;41.188;-8.642;2023-03-26T15:57:17;13.73;;;4.63;;
20000;SDS011;10161;41.188;-8.642;2023-03-26T15:59:51;13.93;;;4.17;;